Tiempo atmosférico en la estación meteorológica de Arganda Del Rey, Madrid (533 m.)



Fecha
DESCASC
Temp. máxima en grados centígrados (hora)
DESCASC
Temp. mínima en grados centígrados (hora)
DESCASC
Temp. media en grados centígrados
DESCASC
Racha de viento máxima en m/sg (hora)
DESCASC
Velocidad máxima media en intervalos de 10 minutos(hora)
DESCASC
Precipitaciones diarias en mm
DESCASC
Precipitaciones de 00:00 a 06:00 en mm
DESCASC
Precipitaciones de 06:00 a 12:00 en mm
DESCASC
Precipitaciones de 12:00 a 18:00 en mm
DESCASC
Precipitaciones de 18:00 a 24:00 en mm
DESCASC
23-06-2019 35.1 (17:40) 18 (07:20) 26.5 13.61 (16:00) 5.83 (15:10) 0 0 0 0 0
22-06-2019 32.8 (19:00) 16.1 (06:40) 24.4 8.89 (15:30) 5.56 (15:30) 0 0 0 0 0
21-06-2019 31.3 (17:00) 17.9 (07:00) 24.6 11.11 (17:40) 5.28 (22:30) 0 0 0 0 0
20-06-2019 29.9 (19:10) 14.6 (00:00) 22.3 10.28 (14:20) 6.39 (19:10) 0 0 0 0 0
19-06-2019 28.5 (19:00) 16.7 (00:00) 22.6 11.94 (17:20) 7.22 (17:20) 0 0 0 0 0
18-06-2019 32 (16:40) 17 (00:00) 24.5 11.67 (19:10) 7.78 (19:00) 0 0 0 0 0
17-06-2019 33.4 (19:00) 12.7 (00:00) 23.1 8.89 (15:10) 5.83 (15:00) 0 0 0 0 0
16-06-2019 31.6 (17:30) 10.6 (00:00) 21.1 7.5 (17:30) 4.72 (18:30) 0 0 0 0 0
15-06-2019 27.6 (19:00) 11.1 (00:00) 19.4 8.33 (01:40) 5.28 (01:40) 0 0 0 0 0
14-06-2019 26.2 (16:30) 13.4 (00:00) 19.8 13.89 (16:10) 8.33 (15:30) 0 0 0 0 0
13-06-2019 29.8 (17:20) 14 (00:00) 21.9 11.39 (17:10) 6.67 (16:20) 0 0 0 0 0
12-06-2019 27.1 (19:00) 7.1 (00:00) 17.1 9.44 (16:20) 5.56 (15:30) 0 0 0 0 0
11-06-2019 22.9 (17:10) 13.3 (00:00) 18.1 10.83 (14:00) 6.11 (09:30) 0 0 0 0 0
10-06-2019 28 (16:50) 10.6 (00:00) 19.3 9.17 (18:50) 5.83 (18:00) 0 0 0 0 0
09-06-2019 28.3 (17:20) 11.8 (00:00) 20 11.39 (15:00) 6.94 (16:00) 0 0 0 0 0
08-06-2019 30.1 (17:10) 11.1 (00:00) 20.6 11.94 (15:20) 7.5 (16:20) 0 0 0 0 0
07-06-2019 24.6 (18:00) 11.2 (00:00) 17.9 14.17 (04:30) 8.89 (04:30) 0.8 0.8 0 0 0
06-06-2019 25.8 (18:50) 8.4 (00:00) 17.1 13.89 (16:30) 8.06 (17:10) 0 0 0 0 0
05-06-2019 24.1 (19:00) 14.1 (00:00) 19.1 12.22 (11:00) 7.5 (05:10) 0 0 0 0 0
04-06-2019 30.5 (15:30) 15.6 (00:00) 23.1 15 (14:30) 8.89 (17:00) 0 0 0 0 0
03-06-2019 34.5 (16:20) 18 (00:00) 26.3 12.78 (17:00) 8.06 (15:00) 0 0 0 0 0
02-06-2019 35.4 (17:50) 16.9 (00:00) 26.2 8.33 (17:20) 4.72 (19:00) 0 0 0 0 0
01-06-2019 34.7 (18:50) 15 (00:00) 24.9 5.83 (13:40) 3.61 (19:00) 0 0 0 0 0
31-05-2019 34.1 (18:50) 14.5 (00:00) 24.3 7.5 (15:40) 3.61 (15:40) 0 0 0 0 0
30-05-2019 32.8 (18:50) 12.6 (00:00) 22.7 7.78 (11:40) 4.17 (01:50) 0 0 0 0 0
29-05-2019 28.4 (19:50) 9.8 (00:00) 19.1 11.11 (09:10) 6.11 (09:10) 0 0 0 0 0
28-05-2019 29.3 (16:50) 13 (00:00) 21.1 13.33 (20:00) 7.78 (20:20) 0 0 0 0 0
27-05-2019 29.8 (18:10) 11.8 (00:00) 20.8 10.83 (21:30) 5.83 (21:40) 0 0 0 0 0

Gráficas

Temp. máximas Temp. mínimas Temp. medias Precipitaciones Rachas de viento máximas Velocidades máximas media en intervalos de 10 minutos

Datos horarios

Fecha y hora oficial Temperatura (ºC) Velocidad del viento (km/h) Dirección del viento Racha (km/h) Dirección de racha Precipitación (mm) Presión (hPa) Tendencia (hPa) Humedad (%)
2019-06-25 23:00:00 28.5 4 Este 6 Sudeste 0 -- -- 34
2019-06-25 22:00:00 31.8 4 Oeste 14 Sur 0 -- -- 30
2019-06-25 21:00:00 34.9 9 Sudoeste 26 Sur 0 -- -- 26
2019-06-25 20:00:00 36.1 16 Sur 31 Sur 0 -- -- 23
2019-06-25 19:00:00 37.1 14 Sur 46 Sudoeste 0 -- -- 22
2019-06-25 18:00:00 36.4 13 Sur 28 Sudeste 0 -- -- 23
2019-06-25 17:00:00 35.2 13 Sudoeste 37 Sudoeste 0 -- -- 24
2019-06-25 16:00:00 34.1 10 Sudoeste 30 Sudoeste 0 -- -- 27
2019-06-25 15:00:00 32.9 13 Sudoeste 28 Oeste 0 -- -- 31
2019-06-25 14:00:00 31.5 18 Oeste 30 Sudoeste 0 -- -- 33
2019-06-25 13:00:00 29.4 8 Oeste 16 Sudoeste 0 -- -- 40
2019-06-25 12:00:00 28.4 5 Sur 13 Sudoeste 0 -- -- 43
2019-06-25 11:00:00 24.9 6 Oeste 11 Oeste 0 -- -- 51
2019-06-25 10:00:00 22.9 5 Sudoeste 10 Oeste 0 -- -- 57
2019-06-25 09:00:00 20.9 2 Sudoeste 6 Sudeste 0 -- -- 61
2019-06-25 08:00:00 18.9 3 Sudeste 6 Este 0 -- -- 66
2019-06-25 07:00:00 18.1 3 Sur 5 Sudoeste 0 -- -- 65
2019-06-25 06:00:00 19.4 3 Sur 5 Sur 0 -- -- 62
2019-06-25 05:00:00 20.4 3 Sudoeste 12 Sudoeste 0 -- -- 60
2019-06-25 04:00:00 21.6 7 Sudoeste 14 Sudoeste 0 -- -- 58
2019-06-25 03:00:00 22.3 11 Sudoeste 18 Sudoeste 0 -- -- 55
2019-06-25 02:00:00 22.7 10 Sudoeste 14 Sudoeste 0 -- -- 50
2019-06-25 01:00:00 23.8 5 Oeste 9 Nordeste 0 -- -- 45
2019-06-25 00:00:00 26 5 Sudoeste 19 Oeste 0 -- -- 39
2019-06-24 23:00:00 28.3 9 Sudoeste 19 Oeste 0 -- -- 32
2019-06-24 22:00:00 30 9 Oeste 25 Oeste 0 -- -- 31
2019-06-24 21:00:00 31.3 13 Sudoeste 29 Sudoeste 0 -- -- 29
2019-06-24 20:00:00 32.4 14 Sudoeste 25 Sudoeste 0 -- -- 26
2019-06-24 19:00:00 33.1 21 Sudoeste 32 Sur 0 -- -- 25
2019-06-24 18:00:00 33.2 11 Oeste 23 Oeste 0 -- -- 26
2019-06-24 17:00:00 32 12 Oeste 22 Sudoeste 0 -- -- 28
2019-06-24 16:00:00 31.5 12 Sur 28 Sudoeste 0 -- -- 29
2019-06-24 15:00:00 31.1 18 Sudoeste 25 Sudoeste 0 -- -- 29
2019-06-24 14:00:00 31.1 10 Sudeste 22 Sur 0 -- -- 27
2019-06-24 13:00:00 29.1 7 Sudeste 17 Sur 0 -- -- 32
2019-06-24 12:00:00 26.6 9 Oeste 15 Sudoeste 0 -- -- 36
2019-06-24 11:00:00 25.2 6 Noroeste 14 Oeste 0 -- -- 37
2019-06-24 10:00:00 23.5 5 Sudoeste 10 Sur 0 -- -- 39
2019-06-24 09:00:00 22.7 4 Sur 12 Este 0 -- -- 40
2019-06-24 08:00:00 21.2 5 Nordeste 9 Este 0 -- -- 43
2019-06-24 07:00:00 20.8 3 Este 11 Sudeste 0 -- -- 41
2019-06-24 06:00:00 21.8 7 Este 24 Sudeste 0 -- -- 39
2019-06-24 05:00:00 22.5 14 Este 28 Este 0 -- -- 37
2019-06-24 04:00:00 23.4 9 Este 36 Sudeste 0 -- -- 37
2019-06-24 03:00:00 24.7 21 Sudeste 39 Sudeste 0 -- -- 35
2019-06-24 02:00:00 26.2 30 Sudeste 49 Sudeste 0 -- -- 33
2019-06-24 01:00:00 25.2 12 Sudeste 19 Sudeste 0 -- -- 33
2019-06-24 00:00:00 26.7 8 Sur 12 Sudoeste 0 -- -- 30
2019-06-23 23:00:00 29.2 4 Noroeste 18 Oeste 0 -- -- 26
2019-06-23 22:00:00 30.5 9 Oeste 21 Oeste 0 -- -- 25
2019-06-23 21:00:00 33 0 Calma 10 Oeste 0 -- -- 23
2019-06-23 20:00:00 33.5 6 Sudoeste 15 Oeste 0 -- -- 22
2019-06-23 19:00:00 33.8 14 Sudoeste 27 Sudoeste 0 -- -- 21
2019-06-23 18:00:00 34.4 18 Sudoeste 26 Sudoeste 0 -- -- 21
2019-06-23 17:00:00 34.1 5 Oeste 27 Sudoeste 0 -- -- 21
2019-06-23 16:00:00 34.1 20 Oeste 49 Sudoeste 0 -- -- 21
2019-06-23 15:00:00 33.1 16 Sudoeste 29 Sudoeste 0 -- -- 21
2019-06-23 14:00:00 31.3 19 Sudoeste 28 Sudoeste 0 -- -- 23
2019-06-23 13:00:00 29.8 14 Oeste 22 Sudoeste 0 -- -- 22
2019-06-23 12:00:00 28.2 10 Sudoeste 19 Sudoeste 0 -- -- 31
2019-06-23 11:00:00 25.7 6 Sudoeste 13 Sudoeste 0 -- -- 35
2019-06-23 10:00:00 24.5 6 Sudeste 14 Sudoeste 0 -- -- 38
2019-06-23 09:00:00 23 6 Este 12 Sudeste 0 -- -- 46
2019-06-23 08:00:00 20.3 4 Nordeste 7 Nordeste 0 -- -- 59
2019-06-23 07:00:00 18.3 0 Calma 10 Sudeste 0 -- -- 58
2019-06-23 06:00:00 19.8 5 Sudeste 12 Sudoeste 0 -- -- 54
2019-06-23 05:00:00 21.7 10 Sudeste 24 Sudeste 0 -- -- 50
2019-06-23 04:00:00 22.4 14 Sudeste 27 Sudeste 0 -- -- 49
2019-06-23 03:00:00 21.8 5 Este 13 Sudeste 0 -- -- 48
2019-06-23 02:00:00 20.3 3 Norte 13 Nordeste 0 -- -- 38
2019-06-23 01:00:00 20.4 0 Calma 4 Nordeste 0 -- -- 38
2019-06-23 00:00:00 22.3 3 Nordeste 4 Norte 0 -- -- 38
2019-06-22 23:00:00 24.7 0 Calma 6 Sur 0 -- -- 32
2019-06-22 22:00:00 27.7 4 Sudoeste 9 Sudoeste 0 -- -- 29
2019-06-22 21:00:00 30.6 6 Sudoeste 23 Sudoeste 0 -- -- 26
2019-06-22 20:00:00 32.3 8 Sudoeste 23 Sudoeste 0 -- -- 22
2019-06-22 19:00:00 32.8 13 Sudoeste 24 Sudoeste 0 -- -- 20
2019-06-22 18:00:00 32.3 17 Sudoeste 29 Sudoeste 0 -- -- 22
2019-06-22 17:00:00 32.4 18 Sudoeste 32 Sudoeste 0 -- -- 21
2019-06-22 16:00:00 32.3 17 Sudoeste 32 Sudoeste 0 -- -- 22
2019-06-22 15:00:00 31 18 Sudoeste 27 Sudoeste 0 -- -- 26
2019-06-22 14:00:00 29.8 6 Este 23 Oeste 0 -- -- 32
2019-06-22 13:00:00 28.5 5 Sudeste 16 Sudeste 0 -- -- 39
2019-06-22 12:00:00 26.1 5 Sur 18 Sudeste 0 -- -- 45
2019-06-22 11:00:00 23.7 5 Norte 16 Norte 0 -- -- 50
2019-06-22 10:00:00 22 7 Norte 12 Norte 0 -- -- 51
2019-06-22 09:00:00 19.5 4 Norte 12 Nordeste 0 -- -- 57
2019-06-22 08:00:00 17.5 6 Nordeste 12 Norte 0 -- -- 60
2019-06-22 07:00:00 16.6 8 Nordeste 14 Norte 0 -- -- 62
2019-06-22 06:00:00 16.5 0 Calma 10 Nordeste 0 -- -- 60
2019-06-22 05:00:00 17.8 5 Nordeste 14 Nordeste 0 -- -- 59
2019-06-22 04:00:00 18.5 10 Nordeste 19 Nordeste 0 -- -- 57
2019-06-22 03:00:00 19.4 13 Nordeste 31 Norte 0 -- -- 54
2019-06-22 02:00:00 20.8 17 Norte 31 Nordeste 0 -- -- 51
2019-06-22 01:00:00 22.3 16 Nordeste 28 Norte 0 -- -- 44
2019-06-22 00:00:00 23.8 14 Nordeste 30 Norte 0 -- -- 40
2019-06-21 23:00:00 24.9 16 Norte 31 Norte 0 -- -- 35
2019-06-21 22:00:00 26.5 10 Norte 18 Norte 0 -- -- 33
2019-06-21 21:00:00 28.4 3 Nordeste 13 Noroeste 0 -- -- 29
2019-06-21 20:00:00 29 8 Noroeste 21 Oeste 0 -- -- 28
2019-06-21 19:00:00 30.7 9 Noroeste 20 Oeste 0 -- -- 25
2019-06-21 18:00:00 29.7 14 Sudoeste 40 Sur 0 -- -- 24
2019-06-21 17:00:00 31.3 6 Noroeste 24 Sudoeste 0 -- -- 22
2019-06-21 16:00:00 28.5 9 Sur 24 Sudoeste 0 -- -- 27
2019-06-21 15:00:00 29 6 Sur 29 Oeste 0 -- -- 29
2019-06-21 14:00:00 27.9 12 Sudoeste 23 Noroeste 0 -- -- 31
2019-06-21 13:00:00 26.8 10 Sudoeste 21 Oeste 0 -- -- 34
2019-06-21 12:00:00 25.4 7 Oeste 14 Noroeste 0 -- -- 40
2019-06-21 11:00:00 23.9 4 Oeste 11 Noroeste 0 -- -- 47
2019-06-21 10:00:00 22.1 6 Norte 15 Nordeste 0 -- -- 52
2019-06-21 09:00:00 20.3 9 Norte 19 Nordeste 0 -- -- 58
2019-06-21 08:00:00 19.1 6 Nordeste 21 Nordeste 0 -- -- 60
2019-06-21 07:00:00 17.9 11 Nordeste 27 Norte 0 -- -- 63
2019-06-21 06:00:00 18.4 13 Nordeste 27 Norte 0 -- -- 62
2019-06-21 05:00:00 19.1 8 Norte 19 Norte 0 -- -- 60
2019-06-21 04:00:00 19.9 4 Nordeste 13 Nordeste 0 -- -- 57
2019-06-21 03:00:00 20.4 7 Norte 15 Norte 0 -- -- 54
2019-06-21 02:00:00 20.5 3 Sudoeste 4 Sudoeste 0 -- -- 50
2019-06-21 01:00:00 21 3 Sudoeste 8 Sur 0 -- -- 47
2019-06-21 00:00:00 22.3 6 Sur 18 Sudoeste 0 -- -- 43
2019-06-20 23:00:00 24.1 14 Oeste 22 Oeste 0 -- -- 40
2019-06-20 22:00:00 25.4 14 Oeste 28 Oeste 0 -- -- 37
2019-06-20 21:00:00 27 19 Oeste 31 Sudoeste 0 -- -- 34
2019-06-20 20:00:00 28.5 19 Sudoeste 36 Sudoeste 0 -- -- 30
2019-06-20 19:00:00 29.6 15 Oeste 32 Sudoeste 0 -- -- 29
2019-06-20 18:00:00 29.1 20 Sudoeste 36 Sudoeste 0 -- -- 29
2019-06-20 17:00:00 29 20 Sudoeste 33 Sudoeste 0 -- -- 30
2019-06-20 16:00:00 28 14 Oeste 32 Sudoeste 0 -- -- 31
2019-06-20 15:00:00 27.1 18 Oeste 37 Oeste 0 -- -- 32
2019-06-20 14:00:00 27.4 16 Sudoeste 28 Sur 0 -- -- 33
2019-06-20 13:00:00 27.6 11 Sur 24 Sudoeste 0 -- -- 36
2019-06-20 12:00:00 24.8 6 Sudoeste 19 Sudoeste 0 -- -- 43
2019-06-20 11:00:00 23.4 8 Sudoeste 15 Sudoeste 0 -- -- 45
2019-06-20 10:00:00 21.4 3 Sudoeste 10 Oeste 0 -- -- 51
2019-06-20 09:00:00 19.2 0 Calma 6 Nordeste 0 -- -- 55
2019-06-20 08:00:00 16.7 3 Nordeste 7 Nordeste 0 -- -- 62
2019-06-20 07:00:00 14.6 0 Calma 7 Nordeste 0 -- -- 63
2019-06-20 06:00:00 14.8 4 Nordeste 6 Nordeste 0 -- -- 67
2019-06-20 05:00:00 15.9 0 Calma 4 Noroeste 0 -- -- 61
2019-06-20 04:00:00 17.2 2 Sudeste 5 Sur 0 -- -- 57
2019-06-20 03:00:00 18.7 4 Sur 12 Oeste 0 -- -- 54
2019-06-20 02:00:00 20.2 8 Oeste 14 Sudoeste 0 -- -- 50
2019-06-20 01:00:00 20.4 7 Sudoeste 15 Sudoeste 0 -- -- 47
2019-06-20 00:00:00 21.4 9 Sur 23 Oeste 0 -- -- 46
2019-06-19 23:00:00 22.5 12 Sudoeste 22 Oeste 0 -- -- 44
2019-06-19 22:00:00 24 15 Oeste 31 Sudoeste 0 -- -- 41
2019-06-19 21:00:00 25.7 19 Sudoeste 32 Sudoeste 0 -- -- 36
2019-06-19 20:00:00 27.2 19 Oeste 36 Sudoeste 0 -- -- 35
2019-06-19 19:00:00 28.5 23 Sudoeste 37 Sudoeste 0 -- -- 33
2019-06-19 18:00:00 28.2 21 Sudoeste 43 Oeste 0 -- -- 35
2019-06-19 17:00:00 28.1 20 Oeste 41 Oeste 0 -- -- 35
2019-06-19 16:00:00 27.2 21 Sudoeste 40 Sudoeste 0 -- -- 37
2019-06-19 15:00:00 26.6 16 Sudoeste 39 Sudoeste 0 -- -- 38
2019-06-19 14:00:00 25.9 21 Sudoeste 35 Sudoeste 0 -- -- 40
2019-06-19 13:00:00 24.4 20 Sudoeste 35 Sudoeste 0 -- -- 44
2019-06-19 12:00:00 24.6 21 Sudoeste 37 Sudoeste 0 -- -- 43
2019-06-19 11:00:00 23.1 21 Sudoeste 31 Sudoeste 0 -- -- 48
2019-06-19 10:00:00 21.6 18 Sudoeste 28 Sudoeste 0 -- -- 53
2019-06-19 09:00:00 19.8 16 Sudoeste 24 Sudoeste 0 -- -- 55
2019-06-19 08:00:00 18.2 12 Sudoeste 20 Sudoeste 0 -- -- 59
2019-06-19 07:00:00 16.9 13 Sudoeste 16 Sudoeste 0 -- -- 66
2019-06-19 06:00:00 17.9 9 Sudoeste 14 Sudoeste 0 -- -- 65
2019-06-19 05:00:00 19.1 12 Sudoeste 19 Sudoeste 0 -- -- 63
2019-06-19 04:00:00 19.7 8 Sur 21 Sur 0 -- -- 57
2019-06-19 03:00:00 20.7 14 Sudoeste 23 Sur 0 -- -- 51
2019-06-19 02:00:00 20.2 8 Sur 13 Sudoeste 0 -- -- 50
2019-06-19 01:00:00 21 0 Calma 13 Oeste 0 -- -- 48
2019-06-19 00:00:00 22 6 Sudoeste 12 Oeste 0 -- -- 42
2019-06-18 23:00:00 23.6 6 Oeste 22 Oeste 0 -- -- 41
2019-06-18 22:00:00 25.3 13 Oeste 35 Oeste 0 -- -- 38
2019-06-18 21:00:00 27.7 22 Oeste 39 Oeste 0 -- -- 26
2019-06-18 20:00:00 29.6 24 Oeste 42 Oeste 0 -- -- 19
2019-06-18 19:00:00 31.3 28 Oeste 41 Sudoeste 0 -- -- 14
2019-06-18 18:00:00 31.6 24 Sudoeste 41 Oeste 0 -- -- 16
2019-06-18 17:00:00 31.7 24 Sudoeste 39 Sudoeste 0 -- -- 17
2019-06-18 16:00:00 31.7 25 Sudoeste 40 Sudoeste 0 -- -- 20
2019-06-18 15:00:00 30.8 27 Sudoeste 40 Sudoeste 0 -- -- 21
2019-06-18 14:00:00 29.8 17 Sur 31 Sur 0 -- -- 20
2019-06-18 13:00:00 28.6 16 Sudoeste 33 Oeste 0 -- -- 18
2019-06-18 12:00:00 27.7 18 Sur 32 Sur 0 -- -- 19
2019-06-18 11:00:00 26.1 14 Sur 28 Sudoeste 0 -- -- 20
2019-06-18 10:00:00 24.6 12 Sudoeste 18 Sudoeste 0 -- -- 26
2019-06-18 09:00:00 22.1 7 Sudoeste 10 Sudoeste 0 -- -- 28
2019-06-18 08:00:00 18.1 2 Sudoeste 4 Noroeste 0 -- -- 43
2019-06-18 07:00:00 17.1 3 Oeste 6 Oeste 0 -- -- 46
2019-06-18 06:00:00 18.5 4 Oeste 7 Sudoeste 0 -- -- 42
2019-06-18 05:00:00 19 3 Noroeste 15 Sudoeste 0 -- -- 40
2019-06-18 04:00:00 20 3 Oeste 6 Nordeste 0 -- -- 37
2019-06-18 03:00:00 21.1 0 Calma 4 Sudoeste 0 -- -- 34
2019-06-18 02:00:00 22.4 0 Calma 4 Sudoeste 0 -- -- 33
2019-06-18 01:00:00 23.9 2 Oeste 4 Sudoeste 0 -- -- 28
2019-06-18 00:00:00 25.7 2 Sudeste 7 Este 0 -- -- 25
2019-06-17 23:00:00 27.9 6 Oeste 20 Oeste 0 -- -- 21
2019-06-17 22:00:00 28.4 6 Sudoeste 22 Sudoeste 0 -- -- 21
2019-06-17 21:00:00 30.4 14 Sudoeste 23 Sudoeste 0 -- -- 19
2019-06-17 20:00:00 32.6 11 Sudoeste 25 Oeste 0 -- -- 17
2019-06-17 19:00:00 33.4 10 Sudoeste 30 Sudoeste 0 -- -- 17
2019-06-17 18:00:00 32.5 13 Sudoeste 28 Oeste 0 -- -- 18
2019-06-17 17:00:00 32.1 13 Sudoeste 32 Sudoeste 0 -- -- 17
2019-06-17 16:00:00 31.5 20 Sudoeste 32 Sudoeste 0 -- -- 18
2019-06-17 15:00:00 30.8 21 Sudoeste 30 Oeste 0 -- -- 17
2019-06-17 14:00:00 30.1 16 Sudoeste 27 Sudoeste 0 -- -- 20
2019-06-17 13:00:00 28.8 14 Oeste 26 Oeste 0 -- -- 21
2019-06-17 12:00:00 26.5 9 Sudoeste 16 Sudoeste 0 -- -- 32
2019-06-17 11:00:00 24.8 3 Norte 8 Noroeste 0 -- -- 36
2019-06-17 10:00:00 21.6 2 Noroeste 5 Sur 0 -- -- 45
2019-06-17 09:00:00 19.4 0 Calma 8 Nordeste 0 -- -- 51
2019-06-17 08:00:00 16 3 Este 9 Nordeste 0 -- -- 60
2019-06-17 07:00:00 13 4 Nordeste 7 Nordeste 0 -- -- 67
2019-06-17 06:00:00 14 2 Sudoeste 4 Noroeste 0 -- -- 59
2019-06-17 05:00:00 16.2 0 Calma 10 Sudeste 0 -- -- 53
2019-06-17 04:00:00 18.4 4 Sudeste 8 Sudeste 0 -- -- 49
2019-06-17 03:00:00 19.9 0 Calma 8 Sur 0 -- -- 45
2019-06-17 02:00:00 21 2 Sudeste 22 Sudeste 0 -- -- 39
2019-06-17 01:00:00 20.5 2 Nordeste 14 Sudeste 0 -- -- 35
2019-06-17 00:00:00 20 4 Norte 9 Este 0 -- -- 34
2019-06-16 23:00:00 23 2 Sudeste 5 Noroeste 0 -- -- 30
2019-06-16 22:00:00 25.7 2 Oeste 10 Sur 0 -- -- 26
2019-06-16 21:00:00 28.6 6 Sudoeste 19 Sudoeste 0 -- -- 21
2019-06-16 20:00:00 30.1 13 Sudoeste 22 Sudoeste 0 -- -- 19
2019-06-16 19:00:00 31.6 11 Sudoeste 24 Sur 0 -- -- 18
2019-06-16 18:00:00 31.1 13 Sur 27 Sudoeste 0 -- -- 19
2019-06-16 17:00:00 30.8 15 Sudoeste 27 Sudoeste 0 -- -- 20
2019-06-16 16:00:00 29.6 13 Oeste 23 Sudoeste 0 -- -- 21
2019-06-16 15:00:00 29.1 7 Noroeste 21 Sudoeste 0 -- -- 25
2019-06-16 14:00:00 28.2 10 Oeste 20 Oeste 0 -- -- 26
2019-06-16 13:00:00 27.8 6 Noroeste 19 Noroeste 0 -- -- 26
2019-06-16 12:00:00 26 6 Noroeste 16 Este 0 -- -- 27
2019-06-16 11:00:00 23.7 5 Este 12 Este 0 -- -- 31
2019-06-16 10:00:00 20.7 2 Norte 9 Nordeste 0 -- -- 35
2019-06-16 09:00:00 17.6 7 Nordeste 13 Este 0 -- -- 44
2019-06-16 08:00:00 14 3 Nordeste 11 Este 0 -- -- 51
2019-06-16 07:00:00 11.3 5 Este 8 Este 0 -- -- 55
2019-06-16 06:00:00 11.4 4 Nordeste 8 Este 0 -- -- 52
2019-06-16 05:00:00 10.6 2 Este 5 Este 0 -- -- 50
2019-06-16 04:00:00 13.1 3 Este 8 Nordeste 0 -- -- 43
2019-06-16 03:00:00 13.7 7 Este 13 Este 0 -- -- 43
2019-06-16 02:00:00 13.4 3 Nordeste 5 Este 0 -- -- 42
2019-06-16 01:00:00 14.8 0 Calma 3 Norte 0 -- -- 41
2019-06-16 00:00:00 16.9 0 Calma 4 Nordeste 0 -- -- 33
2019-06-15 23:00:00 18.8 3 Sudoeste 6 Sur 0 -- -- 31
2019-06-15 22:00:00 22.1 5 Sur 8 Sudoeste 0 -- -- 26
2019-06-15 21:00:00 25.7 6 Sudoeste 18 Sur 0 -- -- 21
2019-06-15 20:00:00 26.5 8 Sudoeste 21 Sudoeste 0 -- -- 21
2019-06-15 19:00:00 27.6 8 Sur 21 Sudoeste 0 -- -- 21
2019-06-15 18:00:00 26.7 9 Noroeste 23 Sudoeste 0 -- -- 23
2019-06-15 17:00:00 26.5 10 Sudeste 28 Sudoeste 0 -- -- 24
2019-06-15 16:00:00 25.3 3 Sudeste 23 Sudoeste 0 -- -- 24
2019-06-15 15:00:00 25.3 8 Norte 22 Oeste 0 -- -- 27
2019-06-15 14:00:00 23.1 8 Oeste 26 Oeste 0 -- -- 30
2019-06-15 13:00:00 21.9 5 Oeste 13 Sudeste 0 -- -- 32
2019-06-15 12:00:00 21.1 5 Norte 13 Oeste 0 -- -- 35
2019-06-15 11:00:00 19.5 4 Norte 14 Nordeste 0 -- -- 40
2019-06-15 10:00:00 17.6 3 Norte 10 Sudoeste 0 -- -- 45
2019-06-15 09:00:00 15.1 5 Sur 9 Sur 0 -- -- 51
2019-06-15 08:00:00 12.9 3 Sudoeste 13 Sudoeste 0 -- -- 57
2019-06-15 07:00:00 11.1 5 Sur 14 Sudoeste 0 -- -- 62
2019-06-15 06:00:00 11.8 9 Sudoeste 16 Sur 0 -- -- 58
2019-06-15 05:00:00 12.7 5 Sudoeste 16 Sur 0 -- -- 54
2019-06-15 04:00:00 13.3 8 Sudoeste 15 Sur 0 -- -- 50
2019-06-15 03:00:00 14.7 9 Sur 22 Sudoeste 0 -- -- 47
2019-06-15 02:00:00 15.9 14 Sudoeste 30 Oeste 0 -- -- 43
2019-06-15 01:00:00 16.8 15 Sudoeste 27 Sudoeste 0 -- -- 40
2019-06-15 00:00:00 17.1 9 Sudoeste 25 Oeste 0 -- -- 38
2019-06-14 23:00:00 18.9 16 Oeste 32 Oeste 0 -- -- 35
2019-06-14 22:00:00 20.2 21 Oeste 33 Sudoeste 0 -- -- 32
2019-06-14 21:00:00 22.4 24 Sudoeste 37 Sudoeste 0 -- -- 28
2019-06-14 20:00:00 24 24 Sudoeste 40 Sudoeste 0 -- -- 24
2019-06-14 19:00:00 25.7 26 Sudoeste 41 Sudoeste 0 -- -- 20
2019-06-14 18:00:00 26.1 22 Sudoeste 42 Sudoeste 0 -- -- 24
2019-06-14 17:00:00 25.8 26 Sudoeste 50 Sudoeste 0 -- -- 23
2019-06-14 16:00:00 25.7 27 Sudoeste 46 Sudoeste 0 -- -- 23
2019-06-14 15:00:00 25.7 30 Sudoeste 44 Sudoeste 0 -- -- 25
2019-06-14 14:00:00 25.3 20 Sudoeste 40 Oeste 0 -- -- 26
2019-06-14 13:00:00 23.9 18 Sudoeste 40 Sudoeste 0 -- -- 29
2019-06-14 12:00:00 23.3 21 Sudoeste 38 Oeste 0 -- -- 31
2019-06-14 11:00:00 22.5 24 Oeste 38 Oeste 0 -- -- 33
2019-06-14 10:00:00 20.3 12 Sudoeste 22 Sudoeste 0 -- -- 35
2019-06-14 09:00:00 17.4 11 Sur 17 Sur 0 -- -- 43
2019-06-14 08:00:00 15.4 9 Sudoeste 17 Sudoeste 0 -- -- 48
2019-06-14 07:00:00 13.8 8 Sudoeste 11 Sudoeste 0 -- -- 51
2019-06-14 06:00:00 14.7 6 Sur 9 Sur 0 -- -- 60
2019-06-14 05:00:00 15.3 7 Sudoeste 9 Sudoeste 0 -- -- 54
2019-06-14 04:00:00 16.4 3 Sudoeste 6 Oeste 0 -- -- 47
2019-06-14 03:00:00 16.5 4 Noroeste 8 Noroeste 0 -- -- 43
2019-06-14 02:00:00 17.4 3 Sur 8 Sudoeste 0 -- -- 37
2019-06-14 01:00:00 18.6 3 Noroeste 10 Sudeste 0 -- -- 36
2019-06-14 00:00:00 20.5 3 Sudeste 5 Sudeste 0 -- -- 29
2019-06-13 23:00:00 22.5 2 Sudeste 21 Oeste 0 -- -- 26
2019-06-13 22:00:00 24.3 13 Oeste 33 Noroeste 0 -- -- 24
2019-06-13 21:00:00 26.9 21 Oeste 30 Oeste 0 -- -- 22
2019-06-13 20:00:00 29 12 Sudoeste 27 Sudoeste 0 -- -- 20
2019-06-13 19:00:00 28.6 15 Oeste 34 Sudoeste 0 -- -- 20
2019-06-13 18:00:00 29.5 20 Sudoeste 41 Sur 0 -- -- 19
2019-06-13 17:00:00 29.3 18 Sudoeste 39 Sudoeste 0 -- -- 21
2019-06-13 16:00:00 29 15 Sudoeste 33 Sudoeste 0 -- -- 22
2019-06-13 15:00:00 27.8 20 Oeste 36 Oeste 0 -- -- 25
2019-06-13 14:00:00 27.4 19 Sudoeste 36 Sudoeste 0 -- -- 25
2019-06-13 13:00:00 26.2 16 Sur 36 Sur 0 -- -- 31
2019-06-13 12:00:00 24.2 13 Sur 27 Sudeste 0 -- -- 36
2019-06-13 11:00:00 22.4 13 Sur 26 Este 0 -- -- 42
2019-06-13 10:00:00 19.7 5 Este 11 Norte 0 -- -- 55
2019-06-13 09:00:00 17.7 5 Nordeste 9 Nordeste 0 -- -- 62
2019-06-13 08:00:00 15.8 3 Norte 7 Norte 0 -- -- 70
2019-06-13 07:00:00 14.3 0 Calma 10 Noroeste 0 -- -- 73
2019-06-13 06:00:00 14.9 4 Sudoeste 15 Sudeste 0 -- -- 71
2019-06-13 05:00:00 15 5 Sudeste 15 Sudeste 0 -- -- 67
2019-06-13 04:00:00 15.6 0 Calma 33 Sudeste 0 -- -- 58
2019-06-13 03:00:00 16.5 16 Sudeste 37 Sudeste 0 -- -- 55
2019-06-13 02:00:00 17.4 20 Sudeste 33 Sudeste 0 -- -- 54
2019-06-13 01:00:00 16.6 7 Este 19 Este 0 -- -- 46
2019-06-13 00:00:00 15.4 3 Nordeste 7 Nordeste 0 -- -- 33
2019-06-12 23:00:00 18.1 0 Calma 5 Nordeste 0 -- -- 30
2019-06-12 22:00:00 22.2 3 Oeste 6 Noroeste 0 -- -- 22
2019-06-12 21:00:00 25.7 6 Oeste 13 Sur 0 -- -- 18
2019-06-12 20:00:00 26.6 5 Sudoeste 22 Sudoeste 0 -- -- 17
2019-06-12 19:00:00 27.1 10 Sudoeste 27 Sudeste 0 -- -- 17
2019-06-12 18:00:00 26.3 12 Sur 28 Sudoeste 0 -- -- 18
2019-06-12 17:00:00 25.9 16 Sur 34 Sur 0 -- -- 18
2019-06-12 16:00:00 24.7 10 Oeste 30 Sudoeste 0 -- -- 20
2019-06-12 15:00:00 23.9 11 Oeste 27 Oeste 0 -- -- 21
2019-06-12 14:00:00 23.2 9 Nordeste 23 Oeste 0 -- -- 24
2019-06-12 13:00:00 21.9 9 Noroeste 20 Oeste 0 -- -- 28
2019-06-12 12:00:00 20.2 6 Noroeste 12 Oeste 0 -- -- 34
2019-06-12 11:00:00 18.1 3 Este 13 Este 0 -- -- 39
2019-06-12 10:00:00 15.5 3 Oeste 9 Nordeste 0 -- -- 43
2019-06-12 09:00:00 13.1 7 Nordeste 13 Este 0 -- -- 48
2019-06-12 08:00:00 10.1 4 Este 9 Nordeste 0 -- -- 55
2019-06-12 07:00:00 7.6 5 Este 9 Este 0 -- -- 58
2019-06-12 06:00:00 7.5 0 Calma 10 Este 0 -- -- 56
2019-06-12 05:00:00 8.3 5 Nordeste 10 Nordeste 0 -- -- 50
2019-06-12 04:00:00 8.3 0 Calma 6 Este 0 -- -- 50
2019-06-12 03:00:00 9.7 0 Calma 4 Nordeste 0 -- -- 44
2019-06-12 02:00:00 12.1 5 Norte 8 Sudeste 0 -- -- 37
2019-06-12 01:00:00 13.5 4 Nordeste 10 Nordeste 0 -- -- 35
2019-06-12 00:00:00 14.2 4 Nordeste 9 Nordeste 0 -- -- 34
2019-06-11 23:00:00 15.9 6 Nordeste 21 Norte 0 -- -- 30
2019-06-11 22:00:00 17.8 12 Norte 27 Norte 0 -- -- 26
2019-06-11 21:00:00 20.7 14 Norte 27 Norte 0 -- -- 23
2019-06-11 20:00:00 21.9 18 Norte 30 Norte 0 -- -- 23
2019-06-11 19:00:00 22.6 13 Norte 33 Norte 0 -- -- 22
2019-06-11 18:00:00 22.4 17 Norte 32 Norte 0 -- -- 21
2019-06-11 17:00:00 22 18 Norte 33 Norte 0 -- -- 26
2019-06-11 16:00:00 20.4 15 Nordeste 33 Nordeste 0 -- -- 29
2019-06-11 15:00:00 20.4 16 Nordeste 36 Norte 0 -- -- 35
2019-06-11 14:00:00 19.2 19 Nordeste 39 Norte 0 -- -- 39
2019-06-11 13:00:00 18.3 17 Nordeste 36 Norte 0 -- -- 44
2019-06-11 12:00:00 16.9 21 Nordeste 35 Norte 0 -- -- 47
2019-06-11 11:00:00 17.4 16 Nordeste 33 Nordeste 0 -- -- 47
2019-06-11 10:00:00 15.9 19 Nordeste 34 Norte 0 -- -- 50
2019-06-11 09:00:00 16.6 21 Norte 37 Norte 0 -- -- 48
2019-06-11 08:00:00 16.3 14 Nordeste 25 Nordeste 0 -- -- 49
2019-06-11 07:00:00 14.2 8 Nordeste 14 Nordeste 0 -- -- 46
2019-06-11 06:00:00 13.8 3 Sudeste 5 Sudeste 0 -- -- 44
2019-06-11 05:00:00 13.5 2 Nordeste 7 Nordeste 0 -- -- 45
2019-06-11 04:00:00 14.1 2 Este 11 Este 0 -- -- 42
2019-06-11 03:00:00 14.7 0 Calma 12 Nordeste 0 -- -- 39
2019-06-11 02:00:00 15.8 6 Nordeste 17 Este 0 -- -- 34
2019-06-11 01:00:00 16.1 3 Oeste 8 Norte 0 -- -- 40
2019-06-11 00:00:00 19.1 3 Nordeste 9 Nordeste 0 -- -- 27
2019-06-10 23:00:00 21.4 6 Norte 19 Noroeste 0 -- -- 24
2019-06-10 22:00:00 23.2 10 Noroeste 23 Noroeste 0 -- -- 22
2019-06-10 21:00:00 26 10 Noroeste 22 Noroeste 0 -- -- 21
2019-06-10 20:00:00 27 11 Oeste 28 Oeste 0 -- -- 22
2019-06-10 19:00:00 27.8 15 Oeste 33 Oeste 0 -- -- 21
2019-06-10 18:00:00 27.3 21 Oeste 33 Noroeste 0 -- -- 18
2019-06-10 17:00:00 27.4 19 Oeste 31 Oeste 0 -- -- 22
2019-06-10 16:00:00 26.7 11 Oeste 23 Sudoeste 0 -- -- 25
2019-06-10 15:00:00 25.7 13 Oeste 26 Oeste 0 -- -- 27
2019-06-10 14:00:00 25.2 9 Sudeste 19 Sudoeste 0 -- -- 29
2019-06-10 13:00:00 24 9 Sur 20 Norte 0 -- -- 34
2019-06-10 12:00:00 22.6 6 Sur 15 Sur 0 -- -- 37
2019-06-10 11:00:00 21.2 8 Norte 15 Nordeste 0 -- -- 41
2019-06-10 10:00:00 19.3 6 Norte 13 Norte 0 -- -- 48
2019-06-10 09:00:00 17.3 2 Nordeste 8 Nordeste 0 -- -- 55
2019-06-10 08:00:00 14.3 5 Nordeste 11 Nordeste 0 -- -- 59
2019-06-10 07:00:00 12.4 6 Nordeste 12 Nordeste 0 -- -- 56
2019-06-10 06:00:00 10.8 3 Nordeste 7 Nordeste 0 -- -- 52
2019-06-10 05:00:00 12.2 3 Nordeste 8 Nordeste 0 -- -- 54
2019-06-10 04:00:00 13.4 3 Nordeste 6 Nordeste 0 -- -- 52
2019-06-10 03:00:00 15.2 3 Nordeste 7 Norte 0 -- -- 45
2019-06-10 02:00:00 17.9 3 Este 12 Oeste 0 -- -- 39
2019-06-10 01:00:00 20 8 Oeste 22 Oeste 0 -- -- 34
2019-06-10 00:00:00 21.5 19 Oeste 29 Oeste 0 -- -- 31
2019-06-09 23:00:00 22.3 19 Oeste 37 Sudoeste 0 -- -- 31
2019-06-09 22:00:00 23.4 23 Sudoeste 35 Sudoeste 0 -- -- 29
2019-06-09 21:00:00 24.6 17 Sudoeste 28 Sudoeste 0 -- -- 21
2019-06-09 20:00:00 26.6 21 Sudoeste 33 Sudoeste 0 -- -- 17
2019-06-09 19:00:00 28 23 Oeste 38 Oeste 0 -- -- 17
2019-06-09 18:00:00 28.1 23 Sudoeste 40 Sudoeste 0 -- -- 19
2019-06-09 17:00:00 28.2 21 Oeste 41 Oeste 0 -- -- 20
2019-06-09 16:00:00 27.8 25 Oeste 41 Oeste 0 -- -- 19
2019-06-09 15:00:00 27.3 23 Sudoeste 41 Sudoeste 0 -- -- 21
2019-06-09 14:00:00 27.2 22 Sudoeste 37 Sudoeste 0 -- -- 22
2019-06-09 13:00:00 25.7 22 Sudoeste 33 Sudoeste 0 -- -- 25
2019-06-09 12:00:00 24.4 14 Sudoeste 27 Sudoeste 0 -- -- 29
2019-06-09 11:00:00 21.7 6 Sur 13 Oeste 0 -- -- 42
2019-06-09 10:00:00 19 5 Sudoeste 11 Sudoeste 0 -- -- 50
2019-06-09 09:00:00 17.9 0 Calma 5 Sur 0 -- -- 55
2019-06-09 08:00:00 14.3 0 Calma 6 Nordeste 0 -- -- 64
2019-06-09 07:00:00 12.3 4 Nordeste 8 Nordeste 0 -- -- 69
2019-06-09 06:00:00 12.7 0 Calma 5 Nordeste 0 -- -- 68
2019-06-09 05:00:00 13.9 3 Nordeste 7 Nordeste 0 -- -- 65
2019-06-09 04:00:00 15.5 0 Calma 12 Sudoeste 0 -- -- 62
2019-06-09 03:00:00 17.3 5 Sudoeste 16 Sudoeste 0 -- -- 55
2019-06-09 02:00:00 18.4 8 Sudoeste 22 Sur 0 -- -- 53
2019-06-09 01:00:00 19.1 19 Sudeste 36 Sudeste 0 -- -- 52
2019-06-09 00:00:00 20.2 19 Sudeste 36 Sudeste 0 -- -- 51
2019-06-08 23:00:00 21.7 16 Sudeste 31 Sudeste 0 -- -- 47
2019-06-08 22:00:00 23.6 22 Sudeste 32 Sudeste 0 -- -- 44
2019-06-08 21:00:00 25.7 23 Sudeste 36 Sudeste 0 -- -- 39
2019-06-08 20:00:00 26.9 27 Sudeste 39 Sudeste 0 -- -- 37
2019-06-08 19:00:00 28.4 19 Sur 39 Sur 0 -- -- 33
2019-06-08 18:00:00 28.7 27 Sudeste 41 Sur 0 -- -- 32
2019-06-08 17:00:00 30 19 Sur 40 Sudeste 0 -- -- 28
2019-06-08 16:00:00 29.1 22 Sur 43 Sudeste 0 -- -- 31
2019-06-08 15:00:00 28.1 21 Sur 41 Sur 0 -- -- 32
2019-06-08 14:00:00 27.5 26 Sudoeste 40 Sudoeste 0 -- -- 31
2019-06-08 13:00:00 26.2 17 Sudeste 42 Sudeste 0 -- -- 38
2019-06-08 12:00:00 24.6 19 Sudeste 33 Sudeste 0 -- -- 39
2019-06-08 11:00:00 22.1 6 Sudeste 19 Sudeste 0 -- -- 37
2019-06-08 10:00:00 18.3 7 Norte 15 Norte 0 -- -- 38
2019-06-08 09:00:00 14.8 5 Norte 14 Nordeste 0 -- -- 44
2019-06-08 08:00:00 12.9 4 Nordeste 11 Norte 0 -- -- 47
2019-06-08 07:00:00 11.2 3 Nordeste 12 Nordeste 0 -- -- 50
2019-06-08 06:00:00 12 5 Nordeste 15 Norte 0 -- -- 47
2019-06-08 05:00:00 12.4 4 Norte 12 Norte 0 -- -- 46
2019-06-08 04:00:00 13.7 5 Norte 14 Norte 0 -- -- 42
2019-06-08 03:00:00 14.6 8 Nordeste 19 Norte 0 -- -- 40
2019-06-08 02:00:00 15.8 7 Nordeste 14 Norte 0 -- -- 36
2019-06-08 01:00:00 16.5 8 Nordeste 19 Norte 0 -- -- 34
2019-06-08 00:00:00 17.3 12 Nordeste 26 Nordeste 0 -- -- 33
2019-06-07 23:00:00 17.4 5 Nordeste 10 Nordeste 0 -- -- 33
2019-06-07 22:00:00 19.4 4 Nordeste 7 Norte 0 -- -- 30
2019-06-07 21:00:00 22.8 2 Norte 17 Noroeste 0 -- -- 25
2019-06-07 20:00:00 23.6 5 Sur 19 Noroeste 0 -- -- 24
2019-06-07 19:00:00 24.3 5 Sudeste 27 Oeste 0 -- -- 23
2019-06-07 18:00:00 24.6 9 Noroeste 24 Noroeste 0 -- -- 23
2019-06-07 17:00:00 22.8 6 Sur 24 Oeste 0 -- -- 25
2019-06-07 16:00:00 21.6 14 Oeste 27 Oeste 0 -- -- 26
2019-06-07 15:00:00 20.5 17 Oeste 30 Oeste 0 -- -- 28
2019-06-07 14:00:00 20 5 Noroeste 31 Oeste 0 -- -- 31
2019-06-07 13:00:00 18.8 8 Noroeste 30 Oeste 0 -- -- 36
2019-06-07 12:00:00 17.3 17 Oeste 32 Sudoeste 0 -- -- 38
2019-06-07 11:00:00 15.5 14 Oeste 30 Oeste 0 -- -- 43
2019-06-07 10:00:00 14.1 15 Oeste 33 Oeste 0 -- -- 47
2019-06-07 09:00:00 12.5 17 Oeste 31 Oeste 0 -- -- 55
2019-06-07 08:00:00 11.8 15 Oeste 30 Oeste 0 -- -- 77
2019-06-07 07:00:00 11.3 19 Oeste 38 Sudoeste 0 -- -- 81
2019-06-07 06:00:00 11.9 24 Sudoeste 39 Oeste 0.4 -- -- 80
2019-06-07 05:00:00 13.2 23 Oeste 51 Oeste 0.4 -- -- 78
2019-06-07 04:00:00 16 21 Sudoeste 40 Oeste 0 -- -- 68
2019-06-07 03:00:00 16.7 27 Oeste 48 Oeste 0 -- -- 63
2019-06-07 02:00:00 17.6 14 Sudoeste 30 Oeste 0 -- -- 56
2019-06-07 01:00:00 19 16 Sudoeste 31 Sudoeste 0 -- -- 33
2019-06-07 00:00:00 18 6 Sur 29 Oeste 0 -- -- 33
2019-06-06 23:00:00 20.1 19 Sudoeste 31 Sudoeste 0 -- -- 29
2019-06-06 22:00:00 21.2 18 Sudoeste 40 Oeste 0 -- -- 27
2019-06-06 21:00:00 23.2 25 Sudoeste 40 Sudoeste 0 -- -- 25
2019-06-06 20:00:00 24.7 26 Sudoeste 39 Sudoeste 0 -- -- 23
2019-06-06 19:00:00 25.6 27 Sudoeste 43 Sudoeste 0 -- -- 20
2019-06-06 18:00:00 24.6 29 Sudoeste 48 Sudoeste 0 -- -- 21
2019-06-06 17:00:00 25.3 26 Sudoeste 50 Sudoeste 0 -- -- 20
2019-06-06 16:00:00 25.1 26 Sudoeste 43 Sur 0 -- -- 19
2019-06-06 15:00:00 22.5 23 Sudoeste 40 Sudoeste 0 -- -- 21
2019-06-06 14:00:00 22.2 22 Sudoeste 37 Sur 0 -- -- 25
2019-06-06 13:00:00 20.3 21 Sudoeste 33 Sur 0 -- -- 30
2019-06-06 12:00:00 19.4 18 Sudoeste 35 Sudoeste 0 -- -- 33
2019-06-06 11:00:00 18.1 16 Sudoeste 26 Sudoeste 0 -- -- 37
2019-06-06 10:00:00 16.1 15 Sudoeste 23 Sur 0 -- -- 42
2019-06-06 09:00:00 13.9 9 Sudoeste 16 Sudoeste 0 -- -- 47
2019-06-06 08:00:00 10.6 2 Oeste 6 Oeste 0 -- -- 58
2019-06-06 07:00:00 8.6 0 Calma 5 Oeste 0 -- -- 56
2019-06-06 06:00:00 9.6 3 Oeste 5 Oeste 0 -- -- 55
2019-06-06 05:00:00 10.5 4 Sudoeste 6 Sudoeste 0 -- -- 53
2019-06-06 04:00:00 11.2 3 Sudoeste 6 Sur 0 -- -- 49
2019-06-06 03:00:00 12.3 5 Sudoeste 9 Sudoeste 0 -- -- 47
2019-06-06 02:00:00 14.4 3 Sur 8 Sur 0 -- -- 40
2019-06-06 01:00:00 15.9 2 Sudoeste 17 Oeste 0 -- -- 37
2019-06-06 00:00:00 17.7 12 Oeste 29 Oeste 0 -- -- 34
2019-06-05 23:00:00 18.6 10 Oeste 17 Oeste 0 -- -- 32
2019-06-05 22:00:00 19.3 5 Oeste 18 Noroeste 0 -- -- 28
2019-06-05 21:00:00 21 6 Noroeste 24 Noroeste 0 -- -- 26
2019-06-05 20:00:00 21.7 8 Oeste 30 Noroeste 0 -- -- 25
2019-06-05 19:00:00 24.1 11 Noroeste 33 Noroeste 0 -- -- 22
2019-06-05 18:00:00 22.3 16 Noroeste 32 Oeste 0 -- -- 24
2019-06-05 17:00:00 22.6 18 Noroeste 34 Noroeste 0 -- -- 27
2019-06-05 16:00:00 22 14 Noroeste 33 Oeste 0 -- -- 27
2019-06-05 15:00:00 21 13 Noroeste 37 Oeste 0 -- -- 29
2019-06-05 14:00:00 20.4 19 Oeste 41 Sudoeste 0 -- -- 31
2019-06-05 13:00:00 19.5 19 Oeste 43 Oeste 0 -- -- 33
2019-06-05 12:00:00 18 20 Oeste 43 Oeste 0 -- -- 34
2019-06-05 11:00:00 16.7 21 Oeste 44 Oeste 0 -- -- 39
2019-06-05 10:00:00 15.9 23 Oeste 38 Oeste 0 -- -- 46
2019-06-05 09:00:00 14.9 20 Oeste 39 Oeste 0 -- -- 51
2019-06-05 08:00:00 14.4 12 Oeste 38 Oeste 0 -- -- 55
2019-06-05 07:00:00 14.1 20 Oeste 32 Sudoeste 0 -- -- 55
2019-06-05 06:00:00 15.3 19 Oeste 39 Oeste 0 -- -- 54
2019-06-05 05:00:00 16.7 20 Sudoeste 33 Oeste 0 -- -- 53
2019-06-05 04:00:00 17.2 21 Oeste 38 Oeste 0 -- -- 54
2019-06-05 03:00:00 17.9 24 Oeste 35 Sudoeste 0 -- -- 52
2019-06-05 02:00:00 19.7 22 Sudoeste 32 Sudoeste 0 -- -- 52
2019-06-05 01:00:00 21.4 23 Sudoeste 36 Sudoeste 0 -- -- 44
2019-06-05 00:00:00 21.5 15 Sudoeste 26 Oeste 0 -- -- 42
2019-06-04 23:00:00 22.5 15 Oeste 24 Oeste 0 -- -- 42
2019-06-04 22:00:00 23.5 15 Oeste 29 Oeste 0 -- -- 40
2019-06-04 21:00:00 25 18 Oeste 36 Sudoeste 0 -- -- 38
2019-06-04 20:00:00 27 24 Oeste 43 Oeste 0 -- -- 32
2019-06-04 19:00:00 29.2 22 Oeste 44 Sudoeste 0 -- -- 29
2019-06-04 18:00:00 29.1 28 Sudoeste 45 Sudoeste 0 -- -- 26
2019-06-04 17:00:00 30.4 32 Oeste 50 Oeste 0 -- -- 26
2019-06-04 16:00:00 30 27 Sudoeste 53 Sudoeste 0 -- -- 28
2019-06-04 15:00:00 30.2 26 Sudoeste 54 Oeste 0 -- -- 26
2019-06-04 14:00:00 29.1 20 Sudoeste 41 Sudoeste 0 -- -- 32
2019-06-04 13:00:00 27.8 26 Sur 39 Sudoeste 0 -- -- 34
2019-06-04 12:00:00 26.2 20 Sudoeste 36 Sudoeste 0 -- -- 40
2019-06-04 11:00:00 24.8 19 Sudoeste 28 Sudoeste 0 -- -- 45
2019-06-04 10:00:00 23.1 17 Sudoeste 27 Sudoeste 0 -- -- 51
2019-06-04 09:00:00 20.9 15 Sudoeste 21 Sur 0 -- -- 57
2019-06-04 08:00:00 19.6 8 Sudoeste 18 Sudoeste 0 -- -- 59
2019-06-04 07:00:00 15.6 4 Oeste 6 Oeste 0 -- -- 59
2019-06-04 06:00:00 15.8 0 Calma 5 Oeste 0 -- -- 51
2019-06-04 05:00:00 15.8 0 Calma 4 Noroeste 0 -- -- 49
2019-06-04 04:00:00 17.3 2 Norte 6 Oeste 0 -- -- 43
2019-06-04 03:00:00 17.8 5 Sudoeste 8 Sudoeste 0 -- -- 40
2019-06-04 02:00:00 17.6 0 Calma 5 Noroeste 0 -- -- 39
2019-06-04 01:00:00 19.7 0 Calma 4 Sudeste 0 -- -- 36
2019-06-04 00:00:00 22.4 0 Calma 2 Nordeste 0 -- -- 29
2019-06-03 23:00:00 24.8 0 Calma 8 Sur 0 -- -- 25
2019-06-03 22:00:00 27.8 8 Oeste 21 Oeste 0 -- -- 22
2019-06-03 21:00:00 31.4 17 Oeste 27 Oeste 0 -- -- 19
2019-06-03 20:00:00 33.1 17 Oeste 37 Sudoeste 0 -- -- 18
2019-06-03 19:00:00 34.4 21 Sudoeste 40 Sur 0 -- -- 17
2019-06-03 18:00:00 34.2 16 Sudoeste 39 Oeste 0 -- -- 17
2019-06-03 17:00:00 34.3 27 Oeste 46 Oeste 0 -- -- 15
2019-06-03 16:00:00 33.7 25 Oeste 41 Oeste 0 -- -- 16
2019-06-03 15:00:00 33.3 29 Oeste 43 Oeste 0 -- -- 16
2019-06-03 14:00:00 33.3 21 Oeste 39 Sudoeste 0 -- -- 17
2019-06-03 13:00:00 31.4 11 Sudoeste 24 Sur 0 -- -- 20
2019-06-03 12:00:00 28.4 8 Sur 20 Sudoeste 0 -- -- 27
2019-06-03 11:00:00 26 8 Sudoeste 16 Sudoeste 0 -- -- 31
2019-06-03 10:00:00 23.7 4 Sudoeste 12 Oeste 0 -- -- 35
2019-06-03 09:00:00 21.9 2 Este 7 Nordeste 0 -- -- 39
2019-06-03 08:00:00 18.8 4 Nordeste 9 Nordeste 0 -- -- 45
2019-06-03 07:00:00 18.1 5 Nordeste 11 Nordeste 0 -- -- 45
2019-06-03 06:00:00 18.5 2 Nordeste 9 Nordeste 0 -- -- 44
2019-06-03 05:00:00 19.4 2 Oeste 12 Norte 0 -- -- 40
2019-06-03 04:00:00 20.6 8 Este 12 Nordeste 0 -- -- 42
2019-06-03 03:00:00 21 2 Nordeste 8 Nordeste 0 -- -- 37
2019-06-03 02:00:00 22.5 4 Nordeste 8 Nordeste 0 -- -- 34
2019-06-03 01:00:00 23.5 0 Calma 6 Nordeste 0 -- -- 33
2019-06-03 00:00:00 25.1 6 Nordeste 14 Nordeste 0 -- -- 29
2019-06-02 23:00:00 27.3 4 Sudeste 11 Noroeste 0 -- -- 26
2019-06-02 22:00:00 29.3 10 Oeste 17 Oeste 0 -- -- 22
2019-06-02 21:00:00 31.1 4 Oeste 14 Sudoeste 0 -- -- 22
2019-06-02 20:00:00 33.1 9 Sudoeste 23 Sudoeste 0 -- -- 19
2019-06-02 19:00:00 34.9 17 Sudoeste 28 Sudoeste 0 -- -- 16
2019-06-02 18:00:00 34.8 12 Sudoeste 30 Sur 0 -- -- 17
2019-06-02 17:00:00 35.1 12 Sudoeste 26 Sudoeste 0 -- -- 17
2019-06-02 16:00:00 34.5 6 Sur 20 Oeste 0 -- -- 18
2019-06-02 15:00:00 33.4 8 Sudeste 18 Sudoeste 0 -- -- 21
2019-06-02 14:00:00 31.8 6 Sudoeste 15 Sudoeste 0 -- -- 23
2019-06-02 13:00:00 29.7 6 Sudoeste 14 Sudoeste 0 -- -- 25
2019-06-02 12:00:00 27.6 4 Norte 14 Oeste 0 -- -- 27
2019-06-02 11:00:00 25.8 6 Sudeste 14 Sudeste 0 -- -- 31
2019-06-02 10:00:00 23.6 5 Este 13 Este 0 -- -- 34
2019-06-02 09:00:00 21.4 6 Nordeste 11 Este 0 -- -- 37
2019-06-02 08:00:00 18.2 5 Este 14 Este 0 -- -- 44
2019-06-02 07:00:00 16.9 6 Nordeste 12 Nordeste 0 -- -- 44
2019-06-02 06:00:00 18.6 5 Nordeste 15 Noroeste 0 -- -- 41
2019-06-02 05:00:00 18.9 2 Sudoeste 15 Este 0 -- -- 40
2019-06-02 04:00:00 20.3 3 Noroeste 14 Sudeste 0 -- -- 38
2019-06-02 03:00:00 21.6 9 Sudeste 19 Este 0 -- -- 35
2019-06-02 02:00:00 21.2 4 Norte 6 Oeste 0 -- -- 36
2019-06-02 01:00:00 21.9 3 Oeste 11 Sudoeste 0 -- -- 32
2019-06-02 00:00:00 22.2 4 Sudoeste 9 Sur 0 -- -- 31
2019-06-01 23:00:00 24.6 2 Noroeste 4 Este 0 -- -- 30
2019-06-01 22:00:00 27.6 3 Sur 9 Sudoeste 0 -- -- 23
2019-06-01 21:00:00 32.2 8 Sudoeste 13 Oeste 0 -- -- 19
2019-06-01 20:00:00 33.8 7 Sur 19 Sudoeste 0 -- -- 17
2019-06-01 19:00:00 34.3 13 Sudoeste 18 Oeste 0 -- -- 16
2019-06-01 18:00:00 34 4 Nordeste 13 Este 0 -- -- 17
2019-06-01 17:00:00 33.4 9 Este 17 Oeste 0 -- -- 20
2019-06-01 16:00:00 32.8 5 Norte 20 Sudoeste 0 -- -- 20
2019-06-01 15:00:00 31.8 8 Noroeste 20 Oeste 0 -- -- 23
2019-06-01 14:00:00 30.5 6 Oeste 21 Oeste 0 -- -- 27
2019-06-01 13:00:00 29.3 9 Sudoeste 18 Sudeste 0 -- -- 28
2019-06-01 12:00:00 27.1 6 Sudeste 17 Sudeste 0 -- -- 32
2019-06-01 11:00:00 24.9 7 Sudeste 17 Sudeste 0 -- -- 38
2019-06-01 10:00:00 22.4 6 Nordeste 11 Nordeste 0 -- -- 42
2019-06-01 09:00:00 19.7 5 Este 11 Este 0 -- -- 49
2019-06-01 08:00:00 16.7 6 Nordeste 12 Este 0 -- -- 54
2019-06-01 07:00:00 15.4 5 Nordeste 10 Nordeste 0 -- -- 55
2019-06-01 06:00:00 16.6 5 Nordeste 9 Nordeste 0 -- -- 53
2019-06-01 05:00:00 17.7 2 Norte 15 Este 0 -- -- 48
2019-06-01 04:00:00 19 6 Sudeste 14 Sudeste 0 -- -- 46
2019-06-01 03:00:00 20.2 3 Sur 14 Este 0 -- -- 43
2019-06-01 02:00:00 20.8 3 Este 14 Este 0 -- -- 35
2019-06-01 01:00:00 20.1 0 Calma 5 Noroeste 0 -- -- 38
2019-06-01 00:00:00 22 4 Oeste 10 Sudoeste 0 -- -- 31
2019-05-31 23:00:00 23.7 3 Sudoeste 6 Sudeste 0 -- -- 28
2019-05-31 22:00:00 26.7 3 Sudoeste 10 Sur 0 -- -- 26
2019-05-31 21:00:00 31.2 7 Sudoeste 9 Sudoeste 0 -- -- 21
2019-05-31 20:00:00 32.5 8 Sudoeste 13 Sudoeste 0 -- -- 18
2019-05-31 19:00:00 34 4 Noroeste 16 Noroeste 0 -- -- 18
2019-05-31 18:00:00 32.7 8 Sudoeste 21 Sudoeste 0 -- -- 19
2019-05-31 17:00:00 32.6 12 Oeste 19 Oeste 0 -- -- 20
2019-05-31 16:00:00 31.4 6 Oeste 27 Oeste 0 -- -- 22
2019-05-31 15:00:00 31.3 8 Noroeste 19 Oeste 0 -- -- 21
2019-05-31 14:00:00 29.5 9 Oeste 16 Oeste 0 -- -- 25
2019-05-31 13:00:00 29.1 5 Sudeste 15 Sudeste 0 -- -- 30
2019-05-31 12:00:00 27.6 7 Sudeste 19 Sudeste 0 -- -- 30
2019-05-31 11:00:00 24.8 4 Este 14 Este 0 -- -- 36
2019-05-31 10:00:00 22.7 5 Norte 12 Norte 0 -- -- 39
2019-05-31 09:00:00 20 3 Norte 8 Norte 0 -- -- 42
2019-05-31 08:00:00 16.5 2 Norte 9 Nordeste 0 -- -- 46
2019-05-31 07:00:00 14.6 4 Nordeste 10 Este 0 -- -- 48
2019-05-31 06:00:00 15.3 5 Nordeste 8 Este 0 -- -- 45
2019-05-31 05:00:00 16.6 5 Nordeste 12 Nordeste 0 -- -- 44
2019-05-31 04:00:00 18.7 4 Nordeste 13 Este 0 -- -- 40
2019-05-31 03:00:00 17.8 5 Nordeste 17 Este 0 -- -- 36
2019-05-31 02:00:00 19.4 10 Nordeste 15 Nordeste 0 -- -- 34
2019-05-31 01:00:00 20.1 3 Nordeste 14 Sur 0 -- -- 28
2019-05-31 00:00:00 23 9 Nordeste 21 Nordeste 0 -- -- 24
2019-05-30 23:00:00 24.5 8 Nordeste 13 Norte 0 -- -- 23
2019-05-30 22:00:00 26.1 6 Nordeste 12 Norte 0 -- -- 23
2019-05-30 21:00:00 29.9 7 Norte 20 Norte 0 -- -- 19
2019-05-30 20:00:00 31.3 11 Norte 21 Nordeste 0 -- -- 18
2019-05-30 19:00:00 32.8 10 Norte 25 Norte 0 -- -- 16
2019-05-30 18:00:00 32 7 Norte 22 Norte 0 -- -- 20
2019-05-30 17:00:00 31.8 10 Norte 21 Nordeste 0 -- -- 22
2019-05-30 16:00:00 30.1 8 Sudoeste 24 Este 0 -- -- 24
2019-05-30 15:00:00 29.5 8 Nordeste 23 Este 0 -- -- 26
2019-05-30 14:00:00 27.7 11 Sudeste 26 Sudeste 0 -- -- 28
2019-05-30 13:00:00 26 6 Sudeste 23 Este 0 -- -- 31
2019-05-30 12:00:00 24.2 15 Este 28 Este 0 -- -- 34
2019-05-30 11:00:00 22.4 13 Nordeste 23 Nordeste 0 -- -- 38
2019-05-30 10:00:00 20.7 11 Nordeste 25 Nordeste 0 -- -- 41
2019-05-30 09:00:00 17.7 10 Este 18 Este 0 -- -- 46
2019-05-30 08:00:00 14.5 8 Nordeste 15 Nordeste 0 -- -- 52
2019-05-30 07:00:00 12.6 5 Este 11 Nordeste 0 -- -- 58
2019-05-30 06:00:00 13.2 6 Nordeste 13 Nordeste 0 -- -- 55
2019-05-30 05:00:00 13.7 0 Calma 10 Nordeste 0 -- -- 52
2019-05-30 04:00:00 15.2 10 Nordeste 23 Norte 0 -- -- 50
2019-05-30 03:00:00 16.3 13 Nordeste 24 Nordeste 0 -- -- 46
2019-05-30 02:00:00 17.2 13 Nordeste 26 Norte 0 -- -- 43
2019-05-30 01:00:00 18.2 12 Norte 24 Norte 0 -- -- 40
2019-05-30 00:00:00 19.8 12 Norte 22 Nordeste 0 -- -- 39
2019-05-29 23:00:00 21.9 13 Nordeste 30 Noroeste 0 -- -- 38
2019-05-29 22:00:00 23.6 17 Norte 33 Norte 0 -- -- 34
2019-05-29 21:00:00 26.2 14 Norte 27 Norte 0 -- -- 29
2019-05-29 20:00:00 28.4 6 Norte 17 Norte 0 -- -- 27
2019-05-29 19:00:00 28.2 9 Norte 27 Este 0 -- -- 27
2019-05-29 18:00:00 27.3 13 Nordeste 24 Nordeste 0 -- -- 28
2019-05-29 17:00:00 26.7 11 Nordeste 24 Nordeste 0 -- -- 29
2019-05-29 16:00:00 25.4 10 Nordeste 27 Norte 0 -- -- 31
2019-05-29 15:00:00 24.8 14 Norte 31 Nordeste 0 -- -- 31
2019-05-29 14:00:00 23.3 14 Norte 31 Nordeste 0 -- -- 33
2019-05-29 13:00:00 21.7 14 Nordeste 32 Norte 0 -- -- 35
2019-05-29 12:00:00 20.4 17 Norte 31 Norte 0 -- -- 35
2019-05-29 11:00:00 18.4 13 Nordeste 29 Nordeste 0 -- -- 39
2019-05-29 10:00:00 16.4 14 Nordeste 40 Nordeste 0 -- -- 43
2019-05-29 09:00:00 14.7 18 Nordeste 35 Nordeste 0 -- -- 46
2019-05-29 08:00:00 12.5 11 Nordeste 22 Nordeste 0 -- -- 52
2019-05-29 07:00:00 11.2 14 Nordeste 25 Nordeste 0 -- -- 54
2019-05-29 06:00:00 10.6 4 Nordeste 12 Nordeste 0 -- -- 56
2019-05-29 05:00:00 11.8 9 Nordeste 28 Nordeste 0 -- -- 53
2019-05-29 04:00:00 12.6 16 Nordeste 28 Nordeste 0 -- -- 50
2019-05-29 03:00:00 13.3 8 Nordeste 18 Nordeste 0 -- -- 49
2019-05-29 02:00:00 14.2 10 Nordeste 24 Nordeste 0 -- -- 48
2019-05-29 01:00:00 15.7 13 Nordeste 27 Nordeste 0 -- -- 44
2019-05-29 00:00:00 17.5 17 Nordeste 37 Norte 0 -- -- 40
2019-05-28 23:00:00 19.2 19 Norte 41 Norte 0 -- -- 33
2019-05-28 22:00:00 20.6 24 Norte 42 Norte 0 -- -- 27
2019-05-28 21:00:00 22.1 19 Norte 44 Norte 0 -- -- 27
2019-05-28 20:00:00 24.1 24 Norte 48 Norte 0 -- -- 25
2019-05-28 19:00:00 27.3 23 Norte 42 Norte 0 -- -- 24
2019-05-28 18:00:00 28.3 12 Norte 30 Norte 0 -- -- 20
2019-05-28 17:00:00 28.4 16 Norte 28 Norte 0 -- -- 18
2019-05-28 16:00:00 27 13 Nordeste 29 Nordeste 0 -- -- 20
2019-05-28 15:00:00 26.1 10 Nordeste 26 Norte 0 -- -- 22
2019-05-28 14:00:00 25.9 7 Norte 27 Norte 0 -- -- 24
2019-05-28 13:00:00 24.5 9 Norte 26 Norte 0 -- -- 28
2019-05-28 12:00:00 22 10 Nordeste 22 Norte 0 -- -- 34
2019-05-28 11:00:00 19.7 9 Nordeste 21 Norte 0 -- -- 39
2019-05-28 10:00:00 17.9 13 Norte 21 Norte 0 -- -- 42
2019-05-28 09:00:00 15.7 9 Nordeste 15 Nordeste 0 -- -- 50
2019-05-28 08:00:00 13.9 9 Norte 13 Norte 0 -- -- 62
2019-05-28 07:00:00 13.1 3 Nordeste 12 Norte 0 -- -- 64
2019-05-28 06:00:00 13.8 6 Norte 17 Nordeste 0 -- -- 63
2019-05-28 05:00:00 14.6 6 Norte 18 Nordeste 0 -- -- 62
2019-05-28 04:00:00 15.7 8 Nordeste 17 Nordeste 0 -- -- 58
2019-05-28 03:00:00 16.4 5 Norte 19 Nordeste 0 -- -- 56
2019-05-28 02:00:00 17.6 4 Nordeste 17 Nordeste 0 -- -- 52
2019-05-28 01:00:00 19 8 Nordeste 23 Este 0 -- -- 49
2019-05-28 00:00:00 20.5 6 Nordeste 15 Norte 0 -- -- 47
2019-05-27 23:00:00 22.5 9 Nordeste 27 Norte 0 -- -- 40
2019-05-27 22:00:00 24 17 Norte 39 Norte 0 -- -- 35
2019-05-27 21:00:00 26 18 Norte 32 Norte 0 -- -- 31
2019-05-27 20:00:00 27.6 16 Norte 28 Norte 0 -- -- 29
2019-05-27 19:00:00 28.6 14 Norte 30 Norte 0 -- -- 28
2019-05-27 18:00:00 29.3 16 Norte 30 Norte 0 -- -- 28
2019-05-27 17:00:00 29.7 6 Norte 20 Norte 0 -- -- 28
2019-05-27 16:00:00 28.2 10 Nordeste 21 Norte 0 -- -- 29
2019-05-27 15:00:00 28.2 7 Nordeste 22 Norte 0 -- -- 29
2019-05-27 14:00:00 26.8 6 Sudeste 17 Este 0 -- -- 33
2019-05-27 13:00:00 26.3 4 Norte 16 Noroeste 0 -- -- 34
2019-05-27 12:00:00 24 4 Norte 13 Norte 0 -- -- 38
2019-05-27 11:00:00 21.4 4 Noroeste 12 Este 0 -- -- 43
2019-05-27 10:00:00 19 5 Nordeste 10 Este 0 -- -- 47
2019-05-27 09:00:00 14.3 4 Nordeste 9 Este 0 -- -- 61
2019-05-27 08:00:00 12.8 3 Este 6 Nordeste 0 -- -- 67
2019-05-27 07:00:00 12.4 3 Norte 11 Nordeste 0 -- -- 65
2019-05-27 06:00:00 12.3 3 Sudeste 8 Nordeste 0 -- -- 64
2019-05-27 05:00:00 13.2 4 Este 9 Sur 0 -- -- 62
2019-05-27 04:00:00 13.8 2 Noroeste 9 Nordeste 0 -- -- 59
2019-05-27 03:00:00 16.5 5 Nordeste 9 Norte 0 -- -- 51
2019-05-27 02:00:00 16.7 3 Sudeste 8 Nordeste 0 -- -- 51
2019-05-27 01:00:00 17.7 4 Norte 7 Norte 0 -- -- 52
2019-05-27 00:00:00 20.2 2 Nordeste 23 Norte 0 -- -- 43